TimeCDT,TemperatureF,Dew PointF,Humidity,Sea Level PressureIn,VisibilityMPH,Wind Direction,Wind SpeedMPH,Gust SpeedMPH,PrecipitationIn,Events,Conditions,WindDirDegrees,DateUTC
12:15 AM,55.4,48.2,77,29.74,10.0,Calm,Calm,-,N/A,,Partly Cloudy,0,2012-04-05 05:15:00
12:35 AM,53.6,48.2,82,29.75,10.0,Calm,Calm,-,N/A,,Clear,0,2012-04-05 05:35:00
12:55 AM,53.6,48.2,82,29.74,10.0,Calm,Calm,-,N/A,,Clear,0,2012-04-05 05:55:00
1:15 AM,53.6,46.4,77,29.74,10.0,SW,4.6,-,N/A,,Clear,220,2012-04-05 06:15:00
1:35 AM,53.6,46.4,77,29.74,10.0,Calm,Calm,-,N/A,,Clear,0,2012-04-05 06:35:00
1:55 AM,53.6,46.4,77,29.74,10.0,SW,4.6,-,N/A,,Clear,230,2012-04-05 06:55:00
2:15 AM,51.8,46.4,82,29.74,10.0,Calm,Calm,-,N/A,,Clear,0,2012-04-05 07:15:00
2:55 AM,51.8,44.6,76,29.73,10.0,SSW,3.5,-,N/A,,Clear,210,2012-04-05 07:55:00
3:15 AM,50.0,44.6,82,29.73,10.0,Calm,Calm,-,N/A,,Clear,0,2012-04-05 08:15:00
3:35 AM,50.0,44.6,82,29.72,10.0,SW,3.5,-,N/A,,Clear,230,2012-04-05 08:35:00
3:55 AM,48.2,44.6,87,29.72,10.0,South,4.6,-,N/A,,Clear,190,2012-04-05 08:55:00
4:15 AM,48.2,44.6,87,29.72,10.0,SSW,4.6,-,N/A,,Partly Cloudy,200,2012-04-05 09:15:00
4:35 AM,48.2,44.6,87,29.72,10.0,WSW,4.6,-,N/A,,Partly Cloudy,240,2012-04-05 09:35:00
4:55 AM,48.2,44.6,87,29.72,10.0,SSW,4.6,-,N/A,,Clear,210,2012-04-05 09:55:00
5:15 AM,48.2,44.6,87,29.73,10.0,SW,5.8,-,N/A,,Mostly Cloudy,220,2012-04-05 10:15:00
5:35 AM,48.2,44.6,87,29.73,10.0,SW,3.5,-,N/A,,Mostly Cloudy,230,2012-04-05 10:35:00
5:55 AM,48.2,44.6,87,29.74,10.0,Calm,Calm,-,N/A,,Clear,0,2012-04-05 10:55:00
6:15 AM,48.2,42.8,82,29.75,10.0,Calm,Calm,-,N/A,,Clear,0,2012-04-05 11:15:00
6:35 AM,46.4,42.8,87,29.76,10.0,West,4.6,-,N/A,,Partly Cloudy,260,2012-04-05 11:35:00
6:55 AM,46.4,42.8,87,29.76,10.0,Calm,Calm,-,N/A,,Scattered Clouds,0,2012-04-05 11:55:00
7:15 AM,46.4,42.8,87,29.77,10.0,Calm,Calm,-,N/A,,Clear,0,2012-04-05 12:15:00
7:35 AM,48.2,44.6,87,29.77,10.0,WSW,4.6,-,N/A,,Clear,250,2012-04-05 12:35:00
7:55 AM,50.0,44.6,82,29.77,10.0,WSW,3.5,-,N/A,,Clear,240,2012-04-05 12:55:00
8:15 AM,51.8,46.4,82,29.77,10.0,Calm,Calm,-,N/A,,Clear,0,2012-04-05 13:15:00
8:55 AM,55.4,46.4,72,29.78,10.0,Calm,Calm,-,N/A,,Clear,0,2012-04-05 13:55:00
9:15 AM,55.4,48.2,77,29.79,7.0,North,4.6,-,N/A,,Clear,350,2012-04-05 14:15:00
9:35 AM,57.2,48.2,72,29.80,10.0,North,6.9,-,N/A,,Clear,10,2012-04-05 14:35:00
9:55 AM,57.2,48.2,72,29.80,10.0,North,3.5,-,N/A,,Clear,10,2012-04-05 14:55:00
10:15 AM,59.0,50.0,72,29.80,8.0,Calm,Calm,-,N/A,,Clear,0,2012-04-05 15:15:00
10:35 AM,60.8,50.0,68,29.81,9.0,WNW,4.6,-,N/A,,Partly Cloudy,300,2012-04-05 15:35:00
10:55 AM,62.6,51.8,68,29.81,5.0,NW,4.6,-,N/A,,Partly Cloudy,310,2012-04-05 15:55:00
11:15 AM,64.4,50.0,59,29.82,6.0,WNW,3.5,-,N/A,,Partly Cloudy,290,2012-04-05 16:15:00
11:35 AM,64.4,51.8,64,29.81,10.0,North,3.5,-,N/A,,Clear,10,2012-04-05 16:35:00
11:55 AM,66.2,50.0,56,29.82,10.0,North,9.2,-,N/A,,Clear,350,2012-04-05 16:55:00
12:15 PM,66.2,51.8,60,29.82,10.0,West,4.6,-,N/A,,Scattered Clouds,260,2012-04-05 17:15:00
12:35 PM,68.0,48.2,49,29.82,5.0,WNW,9.2,-,N/A,,Scattered Clouds,300,2012-04-05 17:35:00
12:55 PM,68.0,50.0,52,29.82,5.0,NW,5.8,-,N/A,,Scattered Clouds,320,2012-04-05 17:55:00
1:15 PM,68.0,51.8,56,29.83,6.0,West,9.2,-,N/A,,Scattered Clouds,260,2012-04-05 18:15:00
1:35 PM,68.0,51.8,56,29.83,7.0,WNW,12.7,16.1,N/A,,Partly Cloudy,290,2012-04-05 18:35:00
1:55 PM,69.8,48.2,46,29.83,5.0,West,6.9,-,N/A,,Mostly Cloudy,280,2012-04-05 18:55:00
2:15 PM,69.8,51.8,53,29.83,10.0,WNW,11.5,-,N/A,,Mostly Cloudy,300,2012-04-05 19:15:00
2:35 PM,66.2,51.8,60,29.83,10.0,WNW,13.8,17.3,N/A,,Overcast,290,2012-04-05 19:35:00
2:55 PM,66.2,51.8,60,29.83,5.0,West,12.7,18.4,N/A,,Overcast,270,2012-04-05 19:55:00
3:15 PM,68.0,51.8,56,29.83,10.0,WNW,11.5,-,N/A,,Mostly Cloudy,290,2012-04-05 20:15:00
3:35 PM,68.0,51.8,56,29.83,10.0,WNW,13.8,19.6,N/A,,Mostly Cloudy,290,2012-04-05 20:35:00
3:55 PM,66.2,51.8,60,29.83,10.0,NW,12.7,-,N/A,,Scattered Clouds,310,2012-04-05 20:55:00
4:15 PM,68.0,51.8,56,29.83,10.0,WNW,11.5,-,N/A,,Mostly Cloudy,300,2012-04-05 21:15:00
4:35 PM,68.0,51.8,56,29.84,10.0,WNW,13.8,19.6,N/A,,Mostly Cloudy,300,2012-04-05 21:35:00
4:55 PM,66.2,51.8,60,29.85,10.0,North,17.3,20.7,N/A,,Mostly Cloudy,360,2012-04-05 21:55:00
5:15 PM,62.6,51.8,68,29.86,10.0,North,12.7,-,N/A,,Overcast,350,2012-04-05 22:15:00
5:35 PM,60.8,51.8,72,29.86,10.0,North,13.8,-,N/A,,Overcast,350,2012-04-05 22:35:00
5:55 PM,62.6,51.8,68,29.87,10.0,North,13.8,18.4,N/A,,Overcast,350,2012-04-05 22:55:00
6:15 PM,62.6,51.8,68,29.87,10.0,NNW,8.1,-,N/A,,Mostly Cloudy,340,2012-04-05 23:15:00
6:35 PM,62.6,51.8,68,29.88,10.0,North,13.8,19.6,N/A,,Mostly Cloudy,350,2012-04-05 23:35:00
6:55 PM,60.8,51.8,72,29.89,10.0,North,12.7,18.4,N/A,,Mostly Cloudy,360,2012-04-05 23:55:00
7:15 PM,59.0,50.0,72,29.89,10.0,North,11.5,-,N/A,,Mostly Cloudy,360,2012-04-06 00:15:00
7:35 PM,57.2,50.0,77,29.91,10.0,North,12.7,-,N/A,,Overcast,360,2012-04-06 00:35:00
7:55 PM,55.4,48.2,77,29.92,10.0,North,12.7,-,N/A,,Overcast,10,2012-04-06 00:55:00
8:15 PM,55.4,48.2,77,29.92,10.0,NNE,10.4,-,N/A,,Overcast,20,2012-04-06 01:15:00
8:35 PM,55.4,48.2,77,29.93,10.0,NNE,11.5,-,N/A,,Overcast,30,2012-04-06 01:35:00
9:15 PM,53.6,48.2,82,29.94,10.0,NNE,9.2,-,N/A,,Overcast,20,2012-04-06 02:15:00
9:35 PM,53.6,48.2,82,29.95,9.0,NNE,9.2,-,N/A,,Overcast,30,2012-04-06 02:35:00
9:55 PM,53.6,48.2,82,29.96,10.0,NNE,11.5,-,N/A,,Overcast,20,2012-04-06 02:55:00
10:15 PM,53.6,48.2,82,29.96,10.0,NNE,8.1,-,N/A,,Overcast,30,2012-04-06 03:15:00
10:35 PM,53.6,48.2,82,29.97,10.0,NE,12.7,-,N/A,,Overcast,40,2012-04-06 03:35:00
10:55 PM,51.8,46.4,82,29.98,10.0,NE,11.5,-,N/A,,Overcast,40,2012-04-06 03:55:00
11:15 PM,53.6,46.4,77,29.98,10.0,NE,8.1,-,N/A,,Overcast,50,2012-04-06 04:15:00
11:35 PM,51.8,46.4,82,29.98,10.0,ENE,6.9,-,N/A,,Overcast,60,2012-04-06 04:35:00
11:55 PM,51.8,46.4,82,29.98,10.0,NE,5.8,-,N/A,,Overcast,50,2012-04-06 04:55:00